Friday, October 19, 2018, 9:56 PM GMT
Back to Local

CYBN, Borden, Ont.

Location: , , Canada Lat: 44.25
Local Time: 9:56 PM GMT (21:56 GMT) Lon: -79.917
Time Zone: GMT Elev: 731 ft

Show me the last for .
Show Decoded

2018-10-19 21:00 METAR CYBN 192100Z AUTO 20008KT 170V230 9SM FEW094 13/04 A2977 RMK SLP085 =
2018-10-19 20:00 METAR CYBN 192000Z AUTO 22008G16KT 9SM CLR 13/05 A2982 RMK SLP102 =
2018-10-19 19:00 METAR CYBN 191900Z AUTO 22012KT 9SM CLR 14/05 A2985 RMK SLP111 =
2018-10-19 18:00 METAR CYBN 191800Z AUTO 23010G15KT 9SM CLR 15/05 A2988 RMK SLP122 =
2018-10-19 17:00 METAR CYBN 191700Z AUTO 25010G16KT 220V280 9SM CLR 14/05 A2992 RMK SLP137 =
2018-10-19 16:00 METAR CYBN 191600Z AUTO 15003KT 120V210 9SM CLR 13/05 A2994 RMK SLP144 =
2018-10-19 15:00 METAR CYBN 191500Z AUTO 21006KT 9SM CLR 11/04 A2997 RMK SLP153 =
2018-10-19 14:00 METAR CYBN 191400Z AUTO 22007KT 180V260 9SM FEW067 FEW093 10/04 A3000 RMK PCPN
                 0.5MM PAST HR SLP164 =
2018-10-19 13:00 METAR CYBN 191300Z AUTO 25008G16KT 9SM FEW097 09/03 A3002 RMK SLP174 =
2018-10-19 12:00 METAR CYBN 191200Z AUTO 24013G19KT 9SM CLR 08/03 A3003 RMK SLP177 =
2018-10-19 11:00 METAR CYBN 191100Z AUTO 21006KT 180V240 9SM CLR 07/02 A3005 RMK SLP183 =
2018-10-19 10:00 METAR CYBN 191000Z AUTO 20006KT 170V230 9SM CLR 06/01 A3007 RMK SLP190 =
2018-10-19 09:00 METAR CYBN 190900Z AUTO 14005KT 120V180 9SM CLR 05/01 A3009 RMK SLP196 =
2018-10-19 08:00 METAR CYBN 190800Z AUTO 15003KT 090V230 9SM CLR 07/00 A3011 RMK SLP202 =
2018-10-19 07:00 METAR CYBN 190700Z AUTO 20004KT 160V330 9SM CLR 07/M00 A3012 RMK SLP206 =
2018-10-19 06:00 METAR CYBN 190600Z AUTO 24011G16KT 200V260 9SM CLR 07/00 A3013 RMK SLP208 =
2018-10-19 05:00 METAR CYBN 190500Z AUTO 18009KT 9SM CLR 06/M01 A3014 RMK SLP214 =
2018-10-19 04:00 METAR CYBN 190400Z AUTO 35002KT 9SM CLR 06/M01 A3016 RMK SLP221 =
2018-10-19 03:00 METAR CYBN 190300Z AUTO 23014G19KT 9SM CLR 06/M02 A3014 RMK SLP217 =
2018-10-19 02:00 METAR CYBN 190200Z AUTO 21006KT 9SM CLR 04/M03 A3018 RMK SLP228 =
2018-10-19 01:00 METAR CYBN 190100Z AUTO 20008KT 9SM CLR 03/M03 A3020 RMK SLP238 =
2018-10-19 00:00 METAR CYBN 190000Z AUTO 19004KT 9SM CLR 02/M03 A3024 RMK SLP252 =
2018-10-18 23:00 METAR CYBN 182300Z AUTO 21008KT 9SM CLR 04/M02 A3027 RMK SLP260 =
2018-10-18 22:00 METAR CYBN 182200Z AUTO 22007KT 9SM CLR 06/M01 A3028 RMK SLP264 =

Support USWX by starting your Amazon purchase here.